createdAt,value
2022-12-01T00:00:10.069Z,23.00
2022-12-01T00:03:54.874Z,23.27
2022-12-01T00:07:37.685Z,24.07
2022-12-01T00:11:19.433Z,22.30
2022-12-01T00:15:02.172Z,25.07
2022-12-01T00:18:45.353Z,23.87
2022-12-01T00:22:29.432Z,23.73
2022-12-01T00:26:14.707Z,23.50
2022-12-01T00:29:57.425Z,24.47
2022-12-01T00:33:40.678Z,23.73
2022-12-01T00:37:23.688Z,23.60
2022-12-01T00:41:07.841Z,24.53
2022-12-01T00:44:50.487Z,23.23
2022-12-01T00:48:34.952Z,23.50
2022-12-01T00:52:18.426Z,21.83
2022-12-01T00:56:01.174Z,22.10
2022-12-01T00:59:45.421Z,22.03
2022-12-01T01:03:28.465Z,22.23
2022-12-01T01:07:11.173Z,22.10
2022-12-01T01:10:53.824Z,22.33
2022-12-01T01:14:36.717Z,22.07
2022-12-01T01:18:20.773Z,20.97
2022-12-01T01:22:03.473Z,20.10
2022-12-01T01:25:46.263Z,20.73
2022-12-01T01:29:29.157Z,20.93
2022-12-01T01:33:11.886Z,21.87
2022-12-01T01:36:55.994Z,20.83
2022-12-01T01:40:44.083Z,19.93
2022-12-01T01:44:50.095Z,20.90
2022-12-01T01:48:33.888Z,19.43
2022-12-01T01:52:18.707Z,19.23
2022-12-01T01:56:03.128Z,19.63
2022-12-01T01:59:48.611Z,19.20
2022-12-01T02:03:32.357Z,19.50
2022-12-01T02:07:19.593Z,19.77
2022-12-01T02:11:28.821Z,19.10
2022-12-01T02:15:20.337Z,19.43
2022-12-01T02:19:12.706Z,20.93
2022-12-01T02:23:11.451Z,19.40
2022-12-01T02:27:01.140Z,21.03
2022-12-01T02:30:47.020Z,20.27
2022-12-01T02:34:34.327Z,21.63
2022-12-01T02:38:23.046Z,21.60
2022-12-01T02:42:07.786Z,22.07
2022-12-01T02:45:53.348Z,21.50
2022-12-01T02:49:38.390Z,22.33
2022-12-01T02:53:21.161Z,23.17
2022-12-01T02:57:04.187Z,23.60
2022-12-01T03:00:57.798Z,21.93
2022-12-01T03:04:47.708Z,23.23
2022-12-01T03:08:34.067Z,23.40
2022-12-01T03:12:23.452Z,23.27
2022-12-01T03:16:09.474Z,23.03
2022-12-01T03:19:55.820Z,22.33
2022-12-01T03:23:42.374Z,22.27
2022-12-01T03:27:30.915Z,22.40
2022-12-01T03:31:18.020Z,21.83
2022-12-01T03:35:04.796Z,22.83
2022-12-01T03:38:52.662Z,22.63
2022-12-01T03:42:38.515Z,23.47
2022-12-01T03:46:26.368Z,22.70
2022-12-01T03:50:14.142Z,22.10
2022-12-01T03:54:01.687Z,23.07
2022-12-01T03:57:46.781Z,22.67
2022-12-01T04:01:33.547Z,22.30
2022-12-01T04:05:19.904Z,23.20
2022-12-01T04:09:05.590Z,21.57
2022-12-01T04:12:48.328Z,23.27
2022-12-01T04:16:32.458Z,22.23
2022-12-01T04:20:16.392Z,23.43
2022-12-01T04:24:02.025Z,23.37
2022-12-01T04:27:47.376Z,22.37
2022-12-01T04:31:32.687Z,22.93
2022-12-01T04:35:16.964Z,23.07
2022-12-01T04:38:59.713Z,25.10
2022-12-01T04:42:42.476Z,24.53
2022-12-01T04:46:25.922Z,23.67
2022-12-01T04:50:12.556Z,22.73
2022-12-01T04:53:56.782Z,22.73
2022-12-01T04:57:41.447Z,22.83
2022-12-01T05:01:24.520Z,21.17
2022-12-01T05:05:08.281Z,21.27
2022-12-01T05:08:51.703Z,21.97
2022-12-01T05:12:38.803Z,21.13
2022-12-01T05:16:23.083Z,21.10
2022-12-01T05:20:25.350Z,22.07
2022-12-01T05:24:09.141Z,20.97
2022-12-01T05:27:53.216Z,21.03
2022-12-01T05:31:36.338Z,21.80
2022-12-01T05:35:19.251Z,22.27
2022-12-01T05:39:01.936Z,22.03
2022-12-01T05:42:44.654Z,23.43
2022-12-01T05:46:28.749Z,22.37
2022-12-01T05:50:11.808Z,21.87
2022-12-01T05:53:55.094Z,23.40
2022-12-01T05:57:40.466Z,22.00
2022-12-01T06:01:26.000Z,22.43
2022-12-01T06:05:10.693Z,21.73
2022-12-01T06:08:53.509Z,21.73
2022-12-01T06:12:36.298Z,20.30
2022-12-01T06:16:21.794Z,21.93
2022-12-01T06:20:05.269Z,22.30
2022-12-01T06:23:49.456Z,21.63
2022-12-01T06:27:35.193Z,22.47
2022-12-01T06:31:19.092Z,20.33
2022-12-01T06:35:01.892Z,21.93
2022-12-01T06:38:44.616Z,21.53
2022-12-01T06:42:33.608Z,20.20
2022-12-01T06:46:16.415Z,24.60
2022-12-01T06:50:02.201Z,23.73
2022-12-01T06:53:44.960Z,21.13
2022-12-01T06:57:27.756Z,22.40
2022-12-01T07:01:13.375Z,21.10
2022-12-01T07:04:56.278Z,19.13
2022-12-01T07:08:39.031Z,18.80
2022-12-01T07:12:23.456Z,18.47
2022-12-01T07:16:07.087Z,19.17
2022-12-01T07:19:51.354Z,18.00
2022-12-01T07:23:34.591Z,17.80
2022-12-01T07:27:17.303Z,19.90
2022-12-01T07:31:04.466Z,18.97
2022-12-01T07:34:47.205Z,18.27
2022-12-01T07:38:31.770Z,20.17
2022-12-01T07:42:14.531Z,18.80
2022-12-01T07:45:57.217Z,18.60
2022-12-01T07:49:39.939Z,19.27
2022-12-01T07:53:22.702Z,20.27
2022-12-01T07:57:06.835Z,19.33
2022-12-01T08:00:49.621Z,19.60
2022-12-01T08:04:32.378Z,21.00
2022-12-01T08:08:15.143Z,22.07
2022-12-01T08:11:57.928Z,22.03
2022-12-01T08:15:44.582Z,21.63
2022-12-01T08:19:29.329Z,20.80
2022-12-01T08:23:12.308Z,21.27
2022-12-01T08:26:55.373Z,21.37
2022-12-01T08:30:38.121Z,20.27
2022-12-01T08:34:23.614Z,22.70
2022-12-01T08:38:06.447Z,19.97
2022-12-01T08:41:49.255Z,20.33
2022-12-01T08:45:31.986Z,21.20
2022-12-01T08:49:14.943Z,21.93
2022-12-01T08:53:00.384Z,20.50
2022-12-01T08:56:47.038Z,22.40
2022-12-01T09:00:32.495Z,22.07
2022-12-01T09:04:15.232Z,22.67
2022-12-01T09:08:13.652Z,19.93
2022-12-01T09:11:57.510Z,19.67
2022-12-01T09:15:40.269Z,19.93
2022-12-01T09:19:25.108Z,19.40
2022-12-01T09:23:09.429Z,19.53
2022-12-01T09:26:56.191Z,19.50
2022-12-01T09:30:41.800Z,19.40
2022-12-01T09:34:26.904Z,19.23
2022-12-01T09:38:12.123Z,18.20
2022-12-01T09:41:57.293Z,20.37
2022-12-01T09:45:47.412Z,20.33
2022-12-01T09:49:41.049Z,19.70
2022-12-01T09:53:30.063Z,19.13
2022-12-01T09:57:17.768Z,19.23
2022-12-01T10:01:01.044Z,19.03
2022-12-01T10:04:49.338Z,18.73
2022-12-01T10:08:37.179Z,17.73
2022-12-01T10:12:22.541Z,18.63
2022-12-01T10:16:10.113Z,18.13
2022-12-01T10:19:58.979Z,18.23
2022-12-01T10:24:01.910Z,18.80
2022-12-01T10:27:52.126Z,26.00
2022-12-01T10:31:37.133Z,20.47
2022-12-01T10:35:21.990Z,19.07
2022-12-01T10:39:07.788Z,17.77
2022-12-01T10:42:52.576Z,18.17
2022-12-01T10:46:41.902Z,17.37
2022-12-01T10:50:28.224Z,18.63
2022-12-01T10:54:13.565Z,19.13
2022-12-01T10:57:59.272Z,18.43
2022-12-01T11:01:48.281Z,19.10
2022-12-01T11:05:39.912Z,17.63
2022-12-01T11:09:26.703Z,16.97
2022-12-01T11:13:22.390Z,17.60
2022-12-01T11:17:27.543Z,16.93
2022-12-01T11:21:13.960Z,17.43
2022-12-01T11:25:03.655Z,18.80
2022-12-01T11:28:53.713Z,21.50
2022-12-01T11:32:38.462Z,17.23
2022-12-01T11:36:29.175Z,16.63
2022-12-01T11:40:20.140Z,15.93
2022-12-01T11:44:06.396Z,16.60
2022-12-01T11:48:02.055Z,17.93
2022-12-01T11:51:44.993Z,17.20
2022-12-01T11:55:30.455Z,16.07
2022-12-01T11:59:19.971Z,16.20
2022-12-01T12:03:15.320Z,16.10
2022-12-01T12:07:04.472Z,17.40
2022-12-01T12:10:52.641Z,16.27
2022-12-01T12:14:59.060Z,17.97
2022-12-01T12:18:52.844Z,16.27
2022-12-01T12:22:43.741Z,16.37
2022-12-01T12:26:29.455Z,15.70
2022-12-01T12:30:21.700Z,16.30
2022-12-01T12:34:14.842Z,17.83
2022-12-01T12:38:04.421Z,15.73
2022-12-01T12:41:51.689Z,16.13
2022-12-01T12:45:42.601Z,15.47
2022-12-01T12:49:34.044Z,15.63
2022-12-01T12:53:20.512Z,16.30
2022-12-01T12:57:07.729Z,16.37
2022-12-01T13:00:57.220Z,15.87
2022-12-01T13:04:49.842Z,17.60
2022-12-01T13:08:36.174Z,17.47
2022-12-01T13:12:27.662Z,17.20
2022-12-01T13:16:16.932Z,16.93
2022-12-01T13:19:59.915Z,16.30
2022-12-01T13:23:51.070Z,17.50
2022-12-01T13:27:37.105Z,16.53
2022-12-01T13:31:21.167Z,17.10
2022-12-01T13:35:06.506Z,15.67
2022-12-01T13:38:58.829Z,19.53
2022-12-01T13:42:43.024Z,16.57
2022-12-01T13:46:27.464Z,17.17
2022-12-01T13:50:40.188Z,17.20
2022-12-01T13:54:30.321Z,17.53
2022-12-01T13:58:25.019Z,18.13
2022-12-01T14:02:16.252Z,17.90
2022-12-01T14:06:09.173Z,17.60
2022-12-01T14:09:53.588Z,18.03
2022-12-01T14:13:48.120Z,17.63
2022-12-01T14:17:33.186Z,18.07
2022-12-01T14:21:16.091Z,15.80
2022-12-01T14:24:58.964Z,16.87
2022-12-01T14:29:18.476Z,17.40
2022-12-01T14:33:33.485Z,17.20
2022-12-01T14:37:19.157Z,17.10
2022-12-01T14:41:02.175Z,16.57
2022-12-01T14:44:48.939Z,17.20
2022-12-01T14:48:37.295Z,18.77
2022-12-01T14:52:31.096Z,18.40
2022-12-01T14:56:15.884Z,18.07
2022-12-01T15:00:13.487Z,16.20
2022-12-01T15:03:58.974Z,16.23
2022-12-01T15:07:45.182Z,17.37
2022-12-01T15:11:30.151Z,16.87
2022-12-01T15:15:22.276Z,18.07
2022-12-01T15:19:23.699Z,16.20
2022-12-01T15:23:15.155Z,20.00
2022-12-01T15:27:03.462Z,17.57
2022-12-01T15:30:48.582Z,16.23
2022-12-01T15:34:35.242Z,17.43
2022-12-01T15:38:22.604Z,16.87
2022-12-01T15:42:08.581Z,16.70
2022-12-01T15:45:58.123Z,15.77
2022-12-01T15:49:50.115Z,16.27
2022-12-01T15:53:36.425Z,17.57
2022-12-01T15:57:21.751Z,15.90
2022-12-01T16:01:07.395Z,16.80
2022-12-01T16:04:50.852Z,17.83
2022-12-01T16:08:35.343Z,16.37
2022-12-01T16:12:23.562Z,15.27
2022-12-01T16:16:28.533Z,16.23
2022-12-01T16:20:26.751Z,18.27
2022-12-01T16:24:18.534Z,19.30
2022-12-01T16:28:01.541Z,18.20
2022-12-01T16:32:12.738Z,22.20
2022-12-01T16:35:50.099Z,22.27
2022-12-01T16:39:34.191Z,18.50
2022-12-01T16:43:18.438Z,20.37
2022-12-01T16:47:02.923Z,21.40
2022-12-01T16:50:45.688Z,18.40
2022-12-01T16:54:28.411Z,17.17
2022-12-01T16:58:12.482Z,16.93
2022-12-01T17:01:55.256Z,16.70
2022-12-01T17:05:38.248Z,16.77
2022-12-01T17:09:22.634Z,17.80
2022-12-01T17:13:06.986Z,18.90
2022-12-01T17:16:52.963Z,18.47
2022-12-01T17:20:35.691Z,18.17
2022-12-01T17:24:19.326Z,18.87
2022-12-01T17:28:02.300Z,18.03
2022-12-01T17:31:45.092Z,19.00
2022-12-01T17:35:29.194Z,18.73
2022-12-01T17:39:11.950Z,18.03
2022-12-01T17:42:54.679Z,18.43
2022-12-01T17:46:38.386Z,18.97
2022-12-01T17:50:21.346Z,17.07
2022-12-01T17:54:05.738Z,19.17
2022-12-01T17:57:48.756Z,18.33
2022-12-01T18:01:31.503Z,18.17
2022-12-01T18:05:14.342Z,19.67
2022-12-01T18:08:57.568Z,16.77
2022-12-01T18:12:41.906Z,18.07
2022-12-01T18:16:26.533Z,18.07
2022-12-01T18:20:10.624Z,18.77
2022-12-01T18:23:55.639Z,18.00
2022-12-01T18:27:38.329Z,17.73
2022-12-01T18:31:22.515Z,18.97
2022-12-01T18:35:06.068Z,17.70
2022-12-01T18:38:49.430Z,17.33
2022-12-01T18:42:32.793Z,18.73
2022-12-01T18:46:22.001Z,17.67
2022-12-01T18:50:08.076Z,17.53
2022-12-01T18:53:54.504Z,17.13
2022-12-01T18:57:37.433Z,16.37
2022-12-01T19:01:23.489Z,18.27
2022-12-01T19:05:06.828Z,17.47
2022-12-01T19:08:49.534Z,17.07
2022-12-01T19:12:36.382Z,17.73
2022-12-01T19:16:24.021Z,16.70
2022-12-01T19:20:09.477Z,17.33
2022-12-01T19:23:55.707Z,18.00
2022-12-01T19:27:38.601Z,17.97
2022-12-01T19:31:24.891Z,18.07
2022-12-01T19:35:08.102Z,17.13
2022-12-01T19:38:51.265Z,17.23
2022-12-01T19:42:34.001Z,17.23
2022-12-01T19:46:18.906Z,16.73
2022-12-01T19:50:03.264Z,17.03
2022-12-01T19:53:46.067Z,19.63
2022-12-01T19:57:28.810Z,21.80
2022-12-01T20:01:13.496Z,18.77
2022-12-01T20:04:58.258Z,19.47
2022-12-01T20:08:42.767Z,18.77
2022-12-01T20:12:25.775Z,18.83
2022-12-01T20:16:11.167Z,19.23
2022-12-01T20:19:53.951Z,18.67
2022-12-01T20:23:37.449Z,19.03
2022-12-01T20:27:21.562Z,17.67
2022-12-01T20:31:04.555Z,18.00
2022-12-01T20:34:47.514Z,19.10
2022-12-01T20:38:30.444Z,20.40
2022-12-01T20:42:13.116Z,17.83
2022-12-01T20:45:57.655Z,18.03
2022-12-01T20:49:40.424Z,17.90
2022-12-01T20:53:23.465Z,18.53
2022-12-01T20:57:06.277Z,18.93
2022-12-01T21:00:49.158Z,19.43
2022-12-01T21:04:33.200Z,19.03
2022-12-01T21:08:16.153Z,19.50
2022-12-01T21:12:17.717Z,19.10
2022-12-01T21:16:05.857Z,18.67
2022-12-01T21:19:56.532Z,20.73
2022-12-01T21:23:39.233Z,18.60
2022-12-01T21:27:22.019Z,18.03
2022-12-01T21:31:12.357Z,19.70
2022-12-01T21:35:01.794Z,17.47
2022-12-01T21:38:44.987Z,18.23
2022-12-01T21:42:29.087Z,17.73
2022-12-01T21:46:15.763Z,18.10
2022-12-01T21:50:01.383Z,17.60
2022-12-01T21:53:44.133Z,18.63
2022-12-01T21:57:42.249Z,18.30
2022-12-01T22:01:28.708Z,19.40
2022-12-01T22:05:25.919Z,18.47
2022-12-01T22:09:15.706Z,19.47
2022-12-01T22:12:58.489Z,19.73
2022-12-01T22:16:42.695Z,19.10
2022-12-01T22:20:26.930Z,17.97
2022-12-01T22:24:21.828Z,18.30
2022-12-01T22:28:11.497Z,17.93
2022-12-01T22:32:06.000Z,19.00
2022-12-01T22:35:51.407Z,17.47
2022-12-01T22:39:34.381Z,17.80
2022-12-01T22:43:36.276Z,18.40
2022-12-01T22:47:19.075Z,17.67
2022-12-01T22:51:16.949Z,18.03
2022-12-01T22:54:59.625Z,17.67
2022-12-01T22:58:42.508Z,18.13
2022-12-01T23:02:26.424Z,18.57
2022-12-01T23:06:56.050Z,18.53
2022-12-01T23:10:41.558Z,19.10
2022-12-01T23:14:24.883Z,18.77
2022-12-01T23:18:13.387Z,18.87
2022-12-01T23:21:57.491Z,19.60
2022-12-01T23:25:41.110Z,20.53
2022-12-01T23:29:24.051Z,18.53
2022-12-01T23:33:18.207Z,19.30
2022-12-01T23:37:02.497Z,19.37
2022-12-01T23:40:45.374Z,19.37
2022-12-01T23:44:38.596Z,18.97
2022-12-01T23:48:23.277Z,20.33
2022-12-01T23:52:12.214Z,18.57
2022-12-01T23:55:55.229Z,18.70
2022-12-01T23:59:38.743Z,20.10
